sensor_id;sensor_type;location;lat;lon;timestamp;pressure;altitude;pressure_sealevel;temperature;humidity
45939;BME280;31650;48.818;9.116;2022-09-09T00:07:50;97566.63;;;15.74;100.00
45939;BME280;31650;48.818;9.116;2022-09-09T00:22:54;97564.25;;;15.88;100.00
45939;BME280;31650;48.818;9.116;2022-09-09T00:37:57;97553.03;;;15.90;100.00
45939;BME280;31650;48.818;9.116;2022-09-09T01:08:01;97557.38;;;16.38;100.00
45939;BME280;31650;48.818;9.116;2022-09-09T01:38:03;97588.22;;;15.39;100.00
45939;BME280;31650;48.818;9.116;2022-09-09T01:53:04;97576.94;;;16.00;100.00
45939;BME280;31650;48.818;9.116;2022-09-09T02:23:11;97585.19;;;15.08;100.00
45939;BME280;31650;48.818;9.116;2022-09-09T02:38:13;97597.25;;;14.58;100.00
45939;BME280;31650;48.818;9.116;2022-09-09T02:53:22;97585.47;;;13.96;100.00
45939;BME280;31650;48.818;9.116;2022-09-09T03:08:24;97569.91;;;13.80;100.00
45939;BME280;31650;48.818;9.116;2022-09-09T03:23:24;97566.94;;;13.81;100.00
45939;BME280;31650;48.818;9.116;2022-09-09T03:38:25;97578.19;;;13.85;100.00
45939;BME280;31650;48.818;9.116;2022-09-09T03:53:25;97574.78;;;14.34;100.00
45939;BME280;31650;48.818;9.116;2022-09-09T04:08:26;97555.13;;;14.86;100.00
45939;BME280;31650;48.818;9.116;2022-09-09T04:23:27;97578.03;;;15.34;100.00
45939;BME280;31650;48.818;9.116;2022-09-09T04:38:29;97583.06;;;15.42;100.00
45939;BME280;31650;48.818;9.116;2022-09-09T04:53:29;97581.38;;;15.09;100.00
45939;BME280;31650;48.818;9.116;2022-09-09T05:08:30;97605.16;;;14.81;100.00
45939;BME280;31650;48.818;9.116;2022-09-09T05:23:30;97602.84;;;15.49;100.00
45939;BME280;31650;48.818;9.116;2022-09-09T05:38:31;97604.78;;;16.24;100.00
45939;BME280;31650;48.818;9.116;2022-09-09T05:53:32;97603.63;;;16.19;100.00
45939;BME280;31650;48.818;9.116;2022-09-09T06:08:34;97610.91;;;16.46;100.00
45939;BME280;31650;48.818;9.116;2022-09-09T06:23:38;97614.91;;;16.81;100.00
45939;BME280;31650;48.818;9.116;2022-09-09T06:38:40;97621.81;;;16.89;100.00
45939;BME280;31650;48.818;9.116;2022-09-09T06:53:41;97630.69;;;17.32;100.00
45939;BME280;31650;48.818;9.116;2022-09-09T07:08:42;97622.78;;;17.56;100.00
45939;BME280;31650;48.818;9.116;2022-09-09T07:23:43;97626.63;;;18.06;100.00
45939;BME280;31650;48.818;9.116;2022-09-09T07:38:44;97622.06;;;18.77;100.00
45939;BME280;31650;48.818;9.116;2022-09-09T07:53:45;97631.50;;;19.59;100.00
45939;BME280;31650;48.818;9.116;2022-09-09T08:08:49;97624.00;;;20.58;100.00
45939;BME280;31650;48.818;9.116;2022-09-09T08:23:50;97632.75;;;22.36;100.00
45939;BME280;31650;48.818;9.116;2022-09-09T08:38:52;97638.44;;;22.11;100.00
45939;BME280;31650;48.818;9.116;2022-09-09T08:53:57;97624.31;;;23.37;100.00
45939;BME280;31650;48.818;9.116;2022-09-09T09:09:01;97637.97;;;23.84;97.95
45939;BME280;31650;48.818;9.116;2022-09-09T09:24:02;97656.69;;;20.75;100.00
45939;BME280;31650;48.818;9.116;2022-09-09T09:39:07;97654.97;;;20.26;100.00
45939;BME280;31650;48.818;9.116;2022-09-09T10:09:28;97603.31;;;24.04;79.32
45939;BME280;31650;48.818;9.116;2022-09-09T11:09:34;97643.50;;;21.53;100.00
45939;BME280;31650;48.818;9.116;2022-09-09T11:40:19;97673.53;;;18.71;100.00
45939;BME280;31650;48.818;9.116;2022-09-09T11:55:08;97641.88;;;18.84;100.00
45939;BME280;31650;48.818;9.116;2022-09-09T12:40:32;97596.78;;;22.49;96.50
45939;BME280;31650;48.818;9.116;2022-09-09T12:55:35;97580.56;;;24.24;82.03
45939;BME280;31650;48.818;9.116;2022-09-09T13:10:40;97569.06;;;23.64;81.07
45939;BME280;31650;48.818;9.116;2022-09-09T13:25:51;97562.03;;;23.21;87.25
45939;BME280;31650;48.818;9.116;2022-09-09T13:40:57;97558.31;;;22.48;91.03
45939;BME280;31650;48.818;9.116;2022-09-09T13:55:59;97538.19;;;22.70;75.58
45939;BME280;31650;48.818;9.116;2022-09-09T14:10:59;97540.00;;;23.38;72.44
45939;BME280;31650;48.818;9.116;2022-09-09T14:25:59;97534.28;;;22.16;81.17
45939;BME280;31650;48.818;9.116;2022-09-09T14:41:00;97539.25;;;22.32;73.33
45939;BME280;31650;48.818;9.116;2022-09-09T14:56:04;97540.75;;;22.39;74.63
45939;BME280;31650;48.818;9.116;2022-09-09T15:11:05;97552.22;;;22.18;71.27
45939;BME280;31650;48.818;9.116;2022-09-09T15:26:07;97550.47;;;21.43;77.62
45939;BME280;31650;48.818;9.116;2022-09-09T15:41:07;97543.13;;;21.52;84.78
45939;BME280;31650;48.818;9.116;2022-09-09T15:56:07;97561.34;;;20.77;98.31
45939;BME280;31650;48.818;9.116;2022-09-09T16:11:09;97572.47;;;20.48;97.87
45939;BME280;31650;48.818;9.116;2022-09-09T16:26:13;97609.88;;;19.77;100.00
45939;BME280;31650;48.818;9.116;2022-09-09T16:41:14;97635.41;;;18.28;100.00
45939;BME280;31650;48.818;9.116;2022-09-09T16:56:15;97645.03;;;17.44;100.00
45939;BME280;31650;48.818;9.116;2022-09-09T17:11:17;97641.16;;;16.61;100.00
45939;BME280;31650;48.818;9.116;2022-09-09T17:26:19;97646.81;;;15.97;100.00
45939;BME280;31650;48.818;9.116;2022-09-09T17:41:21;97658.25;;;15.57;100.00
45939;BME280;31650;48.818;9.116;2022-09-09T17:56:23;97662.53;;;15.47;100.00
45939;BME280;31650;48.818;9.116;2022-09-09T18:11:26;97669.00;;;15.36;100.00
45939;BME280;31650;48.818;9.116;2022-09-09T18:41:56;97707.53;;;15.29;100.00
45939;BME280;31650;48.818;9.116;2022-09-09T18:57:03;97728.75;;;14.95;100.00
45939;BME280;31650;48.818;9.116;2022-09-09T19:12:30;97717.34;;;14.81;100.00
45939;BME280;31650;48.818;9.116;2022-09-09T19:27:33;97719.91;;;14.66;100.00
45939;BME280;31650;48.818;9.116;2022-09-09T19:42:43;97727.72;;;14.23;100.00
45939;BME280;31650;48.818;9.116;2022-09-09T19:57:56;97746.44;;;13.81;100.00
45939;BME280;31650;48.818;9.116;2022-09-09T20:13:09;97767.56;;;13.85;100.00
45939;BME280;31650;48.818;9.116;2022-09-09T20:28:18;97779.72;;;13.95;100.00
45939;BME280;31650;48.818;9.116;2022-09-09T20:43:23;97762.84;;;14.65;100.00
45939;BME280;31650;48.818;9.116;2022-09-09T20:58:23;97771.84;;;15.05;100.00
45939;BME280;31650;48.818;9.116;2022-09-09T21:13:27;97764.50;;;14.66;100.00
45939;BME280;31650;48.818;9.116;2022-09-09T21:44:45;97777.56;;;13.97;100.00
45939;BME280;31650;48.818;9.116;2022-09-09T21:59:55;97764.66;;;14.26;100.00
45939;BME280;31650;48.818;9.116;2022-09-09T22:14:57;97768.25;;;14.43;100.00
45939;BME280;31650;48.818;9.116;2022-09-09T22:29:58;97755.91;;;14.58;100.00
45939;BME280;31650;48.818;9.116;2022-09-09T22:44:58;97774.00;;;15.03;100.00
45939;BME280;31650;48.818;9.116;2022-09-09T23:00:01;97819.69;;;15.41;100.00
45939;BME280;31650;48.818;9.116;2022-09-09T23:15:01;97845.03;;;14.08;100.00
45939;BME280;31650;48.818;9.116;2022-09-09T23:30:02;97869.50;;;13.34;100.00
45939;BME280;31650;48.818;9.116;2022-09-09T23:45:03;97872.50;;;13.20;100.00
